Latest Coastal Weather Observations for Cape Bruny AWS

IDT60701

Issued at 10:45 am EST Thursday 17 April 2014 (issued every 10 minutes, with the page automatically refreshed every 10 minutes)

About coastal observations | Map of coastal stations | Coastal observations for TAS | Marine services | Other Formats
Station Details ID: 094198 Name: CAPE BRUNY (CAPE BRUNY) Lat: -43.49 Lon: 147.14 Height: 59.7 m
Data from the previous 72 hours. | See also: Recent months at Cape Bruny AWS
Date/Time
EST
Temp

°C
Wind Pressure Rain
since 9am
mm
Weather Cloud Vis
km
Sea
Height
m
Swell
Dir
 
Speed
knots
Gust
knots
hPa Trend Height
m
Period
s
Dir
17/10:30am 16.1 NNE 10 14 1019.6 - 0.0 - - - - - - -
17/10:00am 14.8 NNE 10 15 1019.9 - 0.0 - - - - - - -
17/09:30am 13.3 N 12 16 1020.1 - 0.0 - - - - - - -
17/09:00am 12.2 N 13 17 1020.1 - 0.2 - - - - - - -
17/08:30am 11.6 N 13 17 1020.1 - 0.2 - - - - - - -
17/08:00am 10.9 N 13 17 1020.1 - 0.2 - - - - - - -
17/07:30am 10.6 N 13 17 1019.8 - 0.0 - - - - - - -
17/07:00am 10.3 N 14 18 1019.6 - 0.0 - - - - - - -
17/06:30am 10.3 N 14 18 1019.5 - 0.0 - - - - - - -
17/06:00am 10.5 N 13 17 1019.8 - 0.0 - - - - - - -
17/05:30am 10.4 N 11 14 1019.5 - 0.0 - - - - - - -
17/05:00am 10.2 NNE 7 11 1019.6 - 0.0 - - - - - - -
17/04:30am 10.4 N 11 12 1019.7 - 0.0 - - - - - - -
17/04:00am 10.6 N 10 11 1019.5 - 0.0 - - - - - - -
17/03:30am 11.1 N 9 10 1019.5 - 0.0 - - - - - - -
17/03:00am 11.1 N 10 11 1019.6 - 0.0 - - - - - - -
17/02:30am 11.4 N 10 11 1019.5 - 0.0 - - - - - - -
17/02:00am 11.6 N 10 12 1019.5 - 0.0 - - - - - - -
17/01:30am 11.9 N 8 11 1019.7 - 0.0 - - - - - - -
17/01:00am 11.8 N 8 9 1019.9 - 0.0 - - - - - - -
17/12:30am 11.8 N 7 8 1020.3 - 0.0 - - - - - - -
17/12:00am 12.0 NNW 7 8 1020.4 - 0.0 - - - - - - -
 
Date/Time
EST
Temp

°C
Wind Pressure Rain
since 9am
mm
Weather Cloud Vis
km
Sea
Height
m
Swell
Dir
 
Speed
knots
Gust
knots
hPa Trend Height
m
Period
s
Dir
16/11:30pm 12.3 NNW 6 7 1020.5 - 0.0 - - - - - - -
16/11:00pm 12.8 NNW 9 11 1020.5 - 0.0 - - - - - - -
16/10:30pm 12.8 N 8 11 1020.4 - 0.0 - - - - - - -
16/10:00pm 13.3 N 8 11 1020.5 - 0.0 - - - - - - -
16/09:30pm 13.2 N 7 11 1020.3 - 0.0 - - - - - - -
16/09:00pm 13.7 N 8 11 1020.1 - 0.0 - - - - - - -
16/08:30pm 14.0 NNE 9 13 1019.8 - 0.0 - - - - - - -
16/08:00pm 14.0 NNE 9 12 1019.7 - 0.0 - - - - - - -
16/07:30pm 14.0 NNE 9 11 1019.5 - 0.0 - - - - - - -
16/07:00pm 13.8 NNE 8 11 1019.5 - 0.0 - - - - - - -
16/06:30pm 13.9 NNE 8 11 1019.4 - 0.0 - - - - - - -
16/06:00pm 14.0 NNE 8 10 1019.4 - 0.0 - - - - - - -
16/05:30pm 14.3 NE 8 9 1019.4 - 0.0 - - - - - - -
16/05:00pm 15.3 NE 5 7 1019.4 - 0.0 - - - - - - -
16/04:30pm 15.9 NE 8 11 1019.3 - 0.0 - - - - - - -
16/04:00pm 16.6 NE 9 12 1019.4 - 0.0 - - - - - - -
16/03:30pm 17.6 NE 10 14 1019.5 - 0.0 - - - - - - -
16/03:00pm 17.6 NE 11 15 1019.6 - 0.0 - - - - - - -
16/02:30pm 17.8 NNE 9 13 1019.6 - 0.0 - - - - - - -
16/02:00pm 18.4 NNE 9 15 1019.9 - 0.0 - - - - - - -
16/01:30pm 18.0 NNE 10 15 1020.2 - 0.0 - - - - - - -
16/01:00pm 18.3 NE 10 14 1020.4 - 0.0 - - - - - - -
16/12:30pm 17.5 NNE 10 14 1020.8 - 0.0 - - - - - - -
16/12:00pm 17.4 NNE 10 15 1021.2 - 0.0 - - - - - - -
16/11:30am 16.7 NNE 11 16 1021.6 - 0.0 - - - - - - -
16/11:00am 16.1 NNE 10 14 1021.8 - 0.0 - - - - - - -
16/10:30am 15.3 NNE 11 15 1022.0 - 0.0 - - - - - - -
16/10:00am 14.5 NE 10 14 1022.2 - 0.0 - - - - - - -
16/09:30am 13.1 NE 10 14 1022.4 - 0.0 - - - - - - -
16/09:00am 11.9 NNE 11 16 1022.7 - 0.4 - - - - - - -
16/08:30am 10.9 NNE 13 16 1022.7 - 0.2 - - - - - - -
16/08:00am 10.6 NNE 12 16 1022.7 - 0.2 - - - - - - -
16/07:30am 10.1 NNE 11 14 1022.7 - 0.2 - - - - - - -
16/07:00am 9.6 NNE 12 15 1022.7 - 0.2 - - - - - - -
16/06:30am 9.7 N 10 15 1022.5 - 0.2 - - - - - - -
16/06:00am 9.2 N 7 10 1022.7 - 0.2 - - - - - - -
16/05:30am 9.3 NNE 9 13 1022.6 - 0.2 - - - - - - -
16/05:00am 9.6 NNE 10 13 1022.7 - 0.2 - - - - - - -
16/04:30am 9.9 N 9 13 1022.9 - 0.2 - - - - - - -
16/04:00am 9.8 N 8 10 1022.9 - 0.2 - - - - - - -
16/03:30am 9.7 NNE 8 10 1022.9 - 0.2 - - - - - - -
16/03:00am 10.0 NNE 8 11 1023.1 - 0.2 - - - - - - -
16/02:30am 10.1 N 8 10 1023.6 - 0.2 - - - - - - -
16/02:00am 10.2 N 10 13 1023.8 - 0.2 - - - - - - -
16/01:30am 10.2 N 9 11 1024.1 - 0.2 - - - - - - -
16/01:00am 10.4 NNE 9 11 1024.4 - 0.2 - - - - - - -
16/12:30am 10.4 N 8 10 1024.7 - 0.2 - - - - - - -
16/12:00am 10.7 NNE 9 11 1024.7 - 0.2 - - - - - - -
 
Date/Time
EST
Temp

°C
Wind Pressure Rain
since 9am
mm
Weather Cloud Vis
km
Sea
Height
m
Swell
Dir
 
Speed
knots
Gust
knots
hPa Trend Height
m
Period
s
Dir
15/11:30pm 10.7 N 6 9 1024.8 - 0.2 - - - - - - -
15/11:00pm 10.6 N 7 9 1025.2 - 0.2 - - - - - - -
15/10:30pm 10.2 N 6 8 1025.2 - 0.2 - - - - - - -
15/10:00pm 10.5 N 8 11 1025.4 - 0.2 - - - - - - -
15/09:30pm 10.1 N 7 8 1025.4 - 0.2 - - - - - - -
15/09:00pm 9.9 N 7 8 1025.3 - 0.2 - - - - - - -
15/08:30pm 9.9 NNE 5 6 1025.5 - 0.2 - - - - - - -
15/08:00pm 10.3 ENE 4 5 1025.4 - 0.2 - - - - - - -
15/07:30pm 10.6 NE 4 5 1025.4 - 0.2 - - - - - - -
15/07:00pm 10.7 ENE 4 5 1025.4 - 0.2 - - - - - - -
15/06:30pm 10.9 E 5 6 1025.2 - 0.2 - - - - - - -
15/06:00pm 11.4 ESE 5 7 1025.0 - 0.2 - - - - - - -
15/05:30pm 11.9 NE 5 6 1025.0 - 0.2 - - - - - - -
15/05:00pm 12.8 ENE 5 6 1025.1 - 0.2 - - - - - - -
15/04:30pm 13.1 ESE 4 6 1025.1 - 0.2 - - - - - - -
15/04:00pm 13.5 E 3 5 1025.3 - 0.2 - - - - - - -
15/03:30pm 13.6 SE 5 7 1025.4 - 0.2 - - - - - - -
15/03:00pm 14.3 SE 6 8 1025.5 - 0.2 - - - - - - -
15/02:30pm 14.7 ESE 5 8 1025.5 - 0.0 - - - - - - -
15/02:00pm 14.4 SSE 5 7 1025.5 - 0.0 - - - - - - -
15/01:30pm 14.3 S 4 6 1025.5 - 0.0 - - - - - - -
15/01:00pm 14.0 SSW 4 6 1025.6 - 0.0 - - - - - - -
15/12:30pm 15.3 W 5 8 1025.8 - 0.0 - - - - - - -
15/12:00pm 14.4 W 4 6 1026.2 - 0.0 - - - - - - -
15/11:30am 14.1 W 4 6 1026.5 - 0.0 - - - - - - -
15/11:00am 14.1 W 5 6 1026.6 - 0.0 - - - - - - -
15/10:30am 13.6 WNW 4 5 1026.6 - 0.0 - - - - - - -
15/10:00am 13.8 NW 3 6 1026.6 - 0.0 - - - - - - -
15/09:30am 13.1 WNW 3 5 1026.7 - 0.0 - - - - - - -
15/09:00am 12.8 CALM 0 3 1026.7 - 1.8 - - - - - - -
15/08:30am 12.7 E 5 8 1026.5 - 1.8 - - - - - - -
15/08:00am 12.2 S 6 9 1026.4 - 1.8 - - - - - - -
15/07:30am 11.9 SE 5 9 1026.1 - 1.8 - - - - - - -
15/07:00am 12.0 S 8 11 1025.9 - 1.8 - - - - - - -
15/06:30am 11.8 SE 5 7 1025.7 - 1.8 - - - - - - -
15/06:00am 11.9 S 4 7 1025.6 - 1.8 - - - - - - -
15/05:30am 12.1 S 7 11 1025.4 - 1.8 - - - - - - -
15/05:00am 12.0 S 5 7 1025.3 - 1.8 - - - - - - -
15/04:30am 12.0 S 6 9 1025.3 - 1.8 - - - - - - -
15/04:00am 12.0 SSE 5 9 1025.3 - 1.8 - - - - - - -
15/03:30am 12.0 SW 5 8 1025.3 - 1.8 - - - - - - -
15/03:00am 12.0 SW 5 8 1025.3 - 1.8 - - - - - - -
15/02:30am 12.0 S 5 7 1025.4 - 1.8 - - - - - - -
15/02:00am 12.1 S 6 10 1025.4 - 1.8 - - - - - - -
15/01:30am 12.0 S 6 8 1025.5 - 1.8 - - - - - - -
15/01:00am 12.0 S 4 6 1025.4 - 1.8 - - - - - - -
15/12:30am 12.0 S 5 9 1025.4 - 1.8 - - - - - - -
15/12:00am 12.0 SSE 6 11 1025.4 - 1.8 - - - - - - -
 
Date/Time
EST
Temp

°C
Wind Pressure Rain
since 9am
mm
Weather Cloud Vis
km
Sea
Height
m
Swell
Dir
 
Speed
knots
Gust
knots
hPa Trend Height
m
Period
s
Dir
14/11:30pm 12.0 S 3 6 1025.5 - 1.8 - - - - - - -
14/11:00pm 12.3 S 8 12 1025.5 - 1.8 - - - - - - -
14/10:30pm 12.1 S 8 11 1025.6 - 1.8 - - - - - - -
14/10:00pm 12.1 SSE 8 11 1025.7 - 1.8 - - - - - - -
14/09:30pm 12.2 SSE 8 11 1025.7 - 1.8 - - - - - - -
14/09:00pm 12.1 SSE 9 12 1025.7 - 1.8 - - - - - - -
14/08:30pm 12.2 SSE 8 13 1025.6 - 1.8 - - - - - - -
14/08:00pm 12.2 S 9 13 1025.6 - 1.8 - - - - - - -
14/07:30pm 12.2 SSW 8 13 1025.5 - 1.8 - - - - - - -
14/07:00pm 12.2 S 10 16 1025.3 - 1.8 - - - - - - -
14/06:30pm 12.5 S 9 13 1025.0 - 1.8 - - - - - - -
14/06:00pm 12.4 S 10 14 1024.7 - 1.8 - - - - - - -
14/05:30pm 12.5 S 10 13 1024.5 - 1.8 - - - - - - -
14/05:00pm 12.7 S 9 13 1024.3 - 1.8 - - - - - - -
14/04:30pm 13.0 S 9 12 1024.2 - 1.8 - - - - - - -
14/04:00pm 13.3 S 8 11 1024.0 - 1.8 - - - - - - -
14/03:30pm 13.4 S 10 14 1024.0 - 1.8 - - - - - - -
14/03:00pm 14.0 SSE 8 11 1023.8 - 1.8 - - - - - - -
14/02:30pm 13.6 SSE 9 13 1023.8 - 1.8 - - - - - - -
14/02:00pm 13.2 SSE 8 13 1023.7 - 1.8 - - - - - - -
14/01:30pm 13.2 S 8 13 1023.7 - 1.8 - - - - - - -
14/01:00pm 13.2 SE 7 12 1023.9 - 1.8 - - - - - - -
14/12:30pm 12.7 S 10 15 1023.9 - 1.8 - - - - - - -
14/12:00pm 12.7 S 13 16 1024.1 - 1.8 - - - - - - -
14/11:30am 13.4 S 11 15 1024.2 - 1.0 - - - - - - -
14/11:00am 14.2 SSE 8 11 1024.0 - 0.0 - - - - - - -

Other Formats:

Comma delimited format used in spreadsheet applications
http://www.bom.gov.au/fwo/IDT60701/IDT60701.95967.axf

JavaScript Object Notation format (JSON) in row-major order
http://www.bom.gov.au/fwo/IDT60701/IDT60701.95967.json